Martha, KY

12:03 PM EDT on July 23, 2014 (GMT -0400)
Green (KKYOLIVE2) Elev 883 ft | 38.19 °N, 83.08 °W | Change Station

Current weather conditions updated 2 minutes ago

Clear
Clear
89.8 °F
Feels Like 86 °F
N
0.0
Wind Variable Wind from North
Gusts 0.0 mph

Today is forecast to be Much Cooler than yesterday. Scattered thunderstorms.

Today
High -- | Low -- °F
--% Chance of Precip.
Yesterday
High -- | Low -- °F
Precip. -- in
6:27 AM 8:48 PM
Waning Crescent, 10% visible
Pressure 30.07 in
Visibility 10.0 miles
Clouds Scattered Clouds 2200 ft
Scattered Clouds 3000 ft
Mostly Cloudy 3500 ft
Heat Index 86 °F
Dew Point 43 °F
Humidity 20%
Rainfall -999.00 in
Snow Depth Not available.
UV 5 out of 12
Pollen 4.20 out of 12
Air Quality Not available.
Flu Activity Not available.
METAR KSJS 231555Z AUTO 00000KT 10SM SCT022 SCT030 BKN035 29/23 A3007 RMK AO2 T02880231

More Conditions Fewer Conditions

Pressure 30.07 in
Visibility 10.0 miles
Clouds Scattered Clouds 2200 ft
Scattered Clouds 3000 ft
Mostly Cloudy 3500 ft
Heat Index 86 °F
Dew Point 43 °F
Humidity 20%
Rainfall -999.00 in
Snow Depth Not available.
UV 5 out of 12
Pollen 4.20 out of 12
Air Quality Not available.
Flu Activity Not available.
METAR KSJS 231555Z AUTO 00000KT 10SM SCT022 SCT030 BKN035 29/23 A3007 RMK AO2 T02880231

More Conditions Fewer Conditions

10-Day Weather Forecast

Almanac

Astronomy

Jul. 23, 2014 Rise Set
Actual Time 6:27 AM EDT 8:48 PM EDT
Civil Twilight 5:57 AM EDT 9:18 PM EDT
Nautical Twilight 5:20 AM EDT 9:55 PM EDT
Astronomical Twilight 4:39 AM EDT 10:36 PM EDT
Moon 3:45 AM EDT 6:16 PM EDT
Length of Visible Light 15h 21m
Length of Day
14h 21m
Tomorrow will be 1m 35s shorter.
Waning Crescent, 10% of the Moon is Illuminated
Today
Waning Crescent
Jul 26
New
Aug 3
First Quarter
Aug 10
Full
Aug 17
Last Quarter

Today's Extremes

State Highs State Lows

Community

WunderPhotos

Upload Photos

1,736,658 photos uploaded!

Nearby

Snow Depth

Station Depth Elevation
No new snow has been reported.

Earthquake Activity

City Distance Mag. Time & Date
No recent earthquake activity has been reported nearby.
Minimum magnitude displayed is 2.5.

Coastal Water Temperatures

Place Temperature
No Stations Reporting

Nearby Weather Stations

Station Location Temp. Heat Index Dew Point Humidity Wind Precip. Elev Updated Type
Green, Olive Hill, KY 89.8 °F 86 °F 43 °F 20% North  at  0.0 mph 0.00 in / hr 883 ft 12:01 PM EDT Normal
Paintsville, KY, Paintsville, KY 84.8 °F 91 °F 72 °F 66% NNE  at  2.0 mph 0.00 in / hr 620 ft 11:52 AM EDT Normal

Show More Stations Show Fewer Stations